Archival Weather

Snohomish County (Paine Fld)

Everett, Washington (KPAE)

Report from: Saturday, November 18, 2023 9:53 AM PST
Current time: Thursday, June 20, 2024 11:52 PM PDT

Current weather – Weather history – Daily summaries
Weather forecast

Temperature9.4°C (48.9°F)
Wind chill8.4°C (47.2°F)
Dew point1.7°C (35.1°F)
Winds 4 kts (2.1 m/s, 4.6 mph) South-Southeast (150°)
Visibility10 mi. (16.1 km)
Clouds Sky clear
Altimeter29.75 in.Hg (1007 mB)
Relative humidity59 %
Density altitude-377 ft. (-115 m)
Sea-level pressure100.8 kPa (1008 mB, 29.76 in.Hg)
Max temp last 6 hours9.4°C (48.9°F)
Min temp last 6 hours1.1°C (34.0°F)
Remarks Automated weather observing station with precipitation discriminator
Pressure falling more quickly
Flight conditions Visual Meteorological Conditions
Raw dataKPAE 181753Z 15004KT 10SM CLR 09/02 A2975 RMK AO2 SLP077 T00940017 10094 20011 58011
An error has occurred. This application may no longer respond until reloaded. Reload 🗙